메인 페이지
METAR-TAF:

METAR-TAF

공항 :

리싱가, 모잠비크

위도: 13-18S, 경도: 035-14E, 고도: 1364m

현재 날씨관측

예보는 1 시간 24분 전, 18:00시(UTC)에 발표되었습니다.
동북동8kt
온도 20°C
습도 68%
기압 1019 hPa
시정 10km 이상
고도 2000ft 상공 구름 조금

METAR: FQLC 251800Z 07008KT 9999 FEW020 20/14 Q1019

시각: 21:24 (19:24 UTC)

예보

예보는 3 시간 24분 전, 16:00시(UTC)에 발표되었습니다.
예보 대상 시간: 25일 18시부터 26일 18시까지 (UTC)
14kt
시정 10km 이상
고도 2000ft 상공 구름 조금
전환 중
25일 18시부터 25일 20시까지 (UTC)
여러 방향의 바람 3kt
전환 중
26일 00시부터 26일 02시까지 (UTC)
6kt
전환 중
26일 06시부터 26일 08시까지 (UTC)
북북서10kt

TAF: FQLC 251600Z 2518/2618 09014KT 9999 FEW020 TX26/2613Z TN15/2603Z BECMG 2518/2520 VRB03KT BECMG 2600/2602 08006KT BECMG 2606/2608 34010KT

4,000개 이상의 공항 관측 자료 및 예보 (METAR 및 TAF 보고).

지도상에서 검색 가능한 기상관측소가 노란 점과 빨간 점으로 표시되어 있습니다.

기상관측소 명을 보려면 표시 위로 마우스를 이동하세요.

날씨 관측과 예보를 보려면 클릭하세요.

지도 변경 : 확대하려면 엑스 표시가 있는 녹색 버튼, 축소하려면 빼기 표시가 있는 녹색 버튼, 다음 페이지의 지도를 보려면 녹색 화살표를 클릭하세요.


METAR-TAF: